Foxworth, Mississippi
Current Conditions -  °F | °C
As of 4:15 PM on Friday 24 Oct 2014 (Local Time) from KBXA Reporting Station
NA  
Wind Chill: 78°   Ceiling: NA
Heat Index: 78°   Visibility: NA
Dew Point: 40°   Wind: 5mph
Humidity: 26%   Direction: 10°N
Pressure: 30.05"   Gusts: NA
Location:  31.24°N, 89.87°W
Report Text: KBXA 242115Z AUTO 01004KT 25/05 A3005 RMK AO2 T02530045 PWINO
Loading
Personal Weather Stations






























Interactive Weather Map
Tropical Storm Tracking
New forecast layout! Learn more

10-Day Weather Forecast

Advertisements
Track Severe Weather on mobile